Time;durP1;ratioP1;P1;durP2;ratioP2;P2;SDS_P1;SDS_P2;PMS_P1;PMS_P2;Temp;Humidity;BMP_temperature;BMP_pressure;BME280_temperature;BME280_humidity;BME280_pressure;Samples;Min_cycle;Max_cycle;Signal;HPM_P1;HPM_P2
2022/04/29 00:00:18;;;;;;;14.90;8.20;;;;;;;5.71;100.00;100947.94;6286507;22;20388;-63
2022/04/29 00:03:04;;;;;;;10.15;7.10;;;;;;;5.42;100.00;100944.75;6264246;22;20027;-64
2022/04/29 00:05:48;;;;;;;11.73;6.35;;;;;;;5.43;100.00;100948.28;6207569;22;20019;-66
2022/04/29 00:08:33;;;;;;;9.88;6.63;;;;;;;5.13;100.00;100938.03;6220791;22;20081;-66
2022/04/29 00:11:18;;;;;;;10.43;7.15;;;;;;;5.14;100.00;100942.44;6277003;22;20022;-66
2022/04/29 00:14:02;;;;;;;9.32;6.82;;;;;;;5.03;100.00;100950.09;6266417;22;20141;-68
2022/04/29 00:16:47;;;;;;;10.93;7.75;;;;;;;5.07;100.00;100951.06;6277331;22;20321;-65
2022/04/29 00:19:32;;;;;;;12.73;8.65;;;;;;;5.07;100.00;100951.06;6277235;22;20433;-64
2022/04/29 00:22:17;;;;;;;13.85;8.52;;;;;;;5.24;100.00;100938.25;6232455;22;20066;-72
2022/04/29 00:25:02;;;;;;;12.23;8.50;;;;;;;5.27;100.00;100946.19;6271667;22;20039;-63
2022/04/29 00:27:47;;;;;;;13.40;8.38;;;;;;;5.42;100.00;100947.38;6245547;22;20018;-63
2022/04/29 00:30:33;;;;;;;12.60;8.10;;;;;;;5.41;100.00;100942.97;6249353;22;20027;-64
2022/04/29 00:33:17;;;;;;;12.98;7.90;;;;;;;5.47;100.00;100951.00;6227472;22;20268;-64
2022/04/29 00:36:02;;;;;;;13.10;8.40;;;;;;;5.24;100.00;100943.50;6249454;22;20026;-63
2022/04/29 00:38:46;;;;;;;11.23;8.13;;;;;;;5.14;100.00;100936.31;6258559;22;20022;-63
2022/04/29 00:41:31;;;;;;;10.80;7.93;;;;;;;5.22;100.00;100950.50;6247273;22;20118;-72
2022/04/29 00:44:16;;;;;;;15.30;8.90;;;;;;;5.18;100.00;100943.41;6215858;22;20084;-63
2022/04/29 00:47:00;;;;;;;15.70;10.38;;;;;;;5.00;100.00;100947.41;6245748;22;20022;-62
2022/04/29 00:49:46;;;;;;;14.95;10.15;;;;;;;4.95;100.00;100942.94;6281494;22;20030;-63
2022/04/29 00:52:32;;;;;;;14.73;8.68;;;;;;;4.75;100.00;100908.31;6280497;22;20037;-64
2022/04/29 00:55:17;;;;;;;16.20;9.73;;;;;;;5.03;100.00;100937.81;6228879;22;20042;-64
2022/04/29 00:58:11;;;;;;;14.38;8.45;;;;;;;5.07;100.00;100939.66;6276161;22;20029;-64
2022/04/29 01:00:56;;;;;;;11.80;6.80;;;;;;;5.06;100.00;100937.88;6286467;22;20019;-63
2022/04/29 01:03:41;;;;;;;11.63;6.80;;;;;;;4.98;100.00;100919.31;6253440;22;20099;-64
2022/04/29 01:06:26;;;;;;;10.57;6.55;;;;;;;4.91;100.00;100909.56;6278992;22;20069;-64
2022/04/29 01:09:10;;;;;;;9.70;6.00;;;;;;;5.07;100.00;100929.16;6279159;22;20022;-63
2022/04/29 01:11:56;;;;;;;11.85;6.78;;;;;;;5.10;100.00;100918.69;6279536;22;20022;-65
2022/04/29 01:14:40;;;;;;;10.98;6.50;;;;;;;5.03;100.00;100901.91;6233694;22;20120;-65
2022/04/29 01:17:25;;;;;;;10.57;6.43;;;;;;;5.19;100.00;100930.28;6245891;22;20503;-63
2022/04/29 01:20:13;;;;;;;11.90;6.63;;;;;;;5.10;100.00;100926.59;6253593;22;20018;-65
2022/04/29 01:22:57;;;;;;;9.98;6.25;;;;;;;5.06;100.00;100932.63;6279917;22;20095;-63
2022/04/29 01:25:42;;;;;;;9.85;6.78;;;;;;;5.06;100.00;100925.59;6226001;22;20407;-64
2022/04/29 01:28:30;;;;;;;11.57;6.72;;;;;;;5.14;100.00;100931.03;6281369;22;20437;-63
2022/04/29 01:31:16;;;;;;;11.43;7.00;;;;;;;5.10;100.00;100932.72;6248098;22;20041;-64
2022/04/29 01:34:01;;;;;;;13.93;7.28;;;;;;;5.22;100.00;100932.94;6224646;22;20019;-65
2022/04/29 01:36:46;;;;;;;15.45;7.43;;;;;;;4.94;100.00;100930.63;6226454;22;20022;-63
2022/04/29 01:39:31;;;;;;;16.98;8.07;;;;;;;4.93;100.00;100929.75;6228434;22;20064;-64
2022/04/29 01:42:16;;;;;;;11.23;7.03;;;;;;;4.84;100.00;100903.25;6262667;22;20116;-64
2022/04/29 01:45:00;;;;;;;11.90;7.38;;;;;;;5.06;100.00;100930.88;6259991;22;20065;-65
2022/04/29 01:47:48;;;;;;;25.73;14.98;;;;;;;4.80;100.00;100893.53;6227358;22;20018;-64
2022/04/29 01:50:51;;;;;;;14.57;7.53;;;;;;;4.89;100.00;100922.66;6247863;22;20107;-64
2022/04/29 01:53:35;;;;;;;12.52;7.82;;;;;;;4.99;100.00;100940.38;6283593;22;20364;-64
2022/04/29 01:56:32;;;;;;;11.82;8.35;;;;;;;4.87;100.00;100932.22;6252696;22;20081;-62
2022/04/29 01:59:18;;;;;;;13.68;8.40;;;;;;;4.69;100.00;100930.97;6231300;22;20022;-62
2022/04/29 02:02:34;;;;;;;12.02;8.50;;;;;;;4.31;100.00;100916.97;6162622;23;20075;-63
2022/04/29 02:05:18;;;;;;;15.32;8.38;;;;;;;4.49;100.00;100933.16;6161579;23;20044;-63
2022/04/29 02:08:05;;;;;;;13.13;8.40;;;;;;;4.53;100.00;100937.63;6132013;23;20454;-63
2022/04/29 02:10:50;;;;;;;14.52;9.32;;;;;;;4.47;100.00;100895.47;6131473;23;20020;-63
2022/04/29 02:13:38;;;;;;;17.52;9.18;;;;;;;4.71;100.00;100940.66;6151620;23;20024;-63
2022/04/29 02:16:46;;;;;;;13.50;8.80;;;;;;;4.71;100.00;100943.28;6181230;23;20083;-66
2022/04/29 02:19:30;;;;;;;18.85;9.48;;;;;;;4.80;100.00;100939.97;6170444;23;20052;-62
2022/04/29 02:22:15;;;;;;;14.88;9.73;;;;;;;4.67;100.00;100944.06;6139100;23;20020;-63
2022/04/29 02:25:00;;;;;;;15.43;9.40;;;;;;;4.31;100.00;100905.56;6167459;23;20020;-64
2022/04/29 02:27:45;;;;;;;16.88;9.93;;;;;;;4.51;100.00;100954.22;6185932;23;20019;-64
2022/04/29 02:30:30;;;;;;;15.27;9.30;;;;;;;4.52;100.00;100956.84;6177133;23;20035;-64
2022/04/29 02:33:16;;;;;;;15.00;9.43;;;;;;;4.62;100.00;100936.91;6166434;23;20067;-64
2022/04/29 02:36:02;;;;;;;16.80;9.23;;;;;;;4.79;100.00;100922.44;6185812;23;20023;-70
2022/04/29 02:38:47;;;;;;;16.10;10.57;;;;;;;4.78;100.00;100939.94;6192514;23;20054;-67
2022/04/29 02:41:32;;;;;;;16.90;10.90;;;;;;;4.49;100.00;100942.75;6218967;23;20043;-65
2022/04/29 02:44:17;;;;;;;19.42;11.38;;;;;;;4.39;100.00;100953.88;6196029;23;20040;-67
2022/04/29 02:47:07;;;;;;;20.30;12.88;;;;;;;4.00;100.00;100916.22;6196259;23;20058;-65
2022/04/29 02:49:53;;;;;;;18.98;12.35;;;;;;;4.28;100.00;100956.25;6189470;23;20051;-70
2022/04/29 02:52:37;;;;;;;21.90;12.77;;;;;;;4.21;100.00;100958.72;6218905;23;20331;-66
2022/04/29 02:55:22;;;;;;;16.13;11.25;;;;;;;4.41;100.00;100960.06;6216343;23;20106;-64
2022/04/29 02:58:13;;;;;;;19.20;12.43;;;;;;;4.55;100.00;100962.16;6208872;23;20019;-68
2022/04/29 03:00:59;;;;;;;20.30;11.95;;;;;;;4.38;100.00;100949.50;6197988;23;20019;-72
2022/04/29 03:03:43;;;;;;;20.35;11.45;;;;;;;4.26;100.00;100941.34;6251733;23;20019;-65
2022/04/29 03:06:28;;;;;;;17.50;11.15;;;;;;;4.38;100.00;100962.63;6219331;23;20343;-66
2022/04/29 03:09:13;;;;;;;22.73;10.75;;;;;;;4.53;100.00;100931.47;6196403;23;20051;-66
2022/04/29 03:11:57;;;;;;;17.20;11.15;;;;;;;4.93;100.00;100963.91;6246811;23;20022;-64
2022/04/29 03:14:45;;;;;;;16.92;11.50;;;;;;;4.89;100.00;100972.59;6227090;22;20019;-63
2022/04/29 03:20:38;;;;;;;21.55;12.05;;;;;;;4.96;100.00;100963.09;6261616;22;20040;-64
2022/04/29 03:23:24;;;;;;;18.83;12.18;;;;;;;5.04;100.00;100974.66;6238473;22;20062;-65
2022/04/29 03:26:12;;;;;;;20.15;12.70;;;;;;;5.14;100.00;100976.59;6255124;22;20058;-64
2022/04/29 03:28:57;;;;;;;23.58;12.63;;;;;;;5.25;100.00;100974.22;6243156;22;20114;-65
2022/04/29 03:31:42;;;;;;;16.77;11.65;;;;;;;5.39;100.00;100984.16;6254027;22;20022;-63
2022/04/29 03:34:38;;;;;;;20.85;13.02;;;;;;;5.17;100.00;100991.59;6234774;22;20046;-65
2022/04/29 03:37:23;;;;;;;26.00;13.40;;;;;;;4.99;100.00;100994.72;6231889;22;20019;-64
2022/04/29 03:40:08;;;;;;;17.23;12.32;;;;;;;5.02;100.00;100978.97;6253490;22;20095;-64
2022/04/29 03:42:55;;;;;;;23.90;13.45;;;;;;;4.46;100.00;100905.91;6287179;22;20026;-63
2022/04/29 03:45:40;;;;;;;21.20;13.35;;;;;;;4.94;100.00;100993.69;6263887;22;20019;-64
2022/04/29 03:49:35;;;;;;;20.95;13.80;;;;;;;5.01;100.00;100985.09;6253070;22;20099;-63
2022/04/29 03:51:48;;;;;;;19.85;12.75;;;;;;;5.13;100.00;100995.00;6231999;22;20018;-64
2022/04/29 03:54:33;;;;;;;18.73;13.57;;;;;;;5.38;100.00;100987.63;6253580;22;20034;-66
2022/04/29 03:57:18;;;;;;;19.40;13.07;;;;;;;5.47;100.00;100992.19;6263376;22;20065;-64
2022/04/29 04:00:04;;;;;;;22.38;13.40;;;;;;;5.23;100.00;100940.00;6256288;22;20025;-64
2022/04/29 04:03:05;;;;;;;22.90;14.30;;;;;;;5.57;100.00;101000.28;6256186;22;20022;-71
2022/04/29 04:08:53;;;;;;;20.58;13.70;;;;;;;5.53;100.00;100989.69;6263446;22;20077;-69
2022/04/29 04:11:37;;;;;;;21.63;13.88;;;;;;;5.68;100.00;101005.75;6232139;22;20330;-66
2022/04/29 04:14:23;;;;;;;24.58;14.38;;;;;;;5.64;100.00;100990.75;6232002;22;20022;-66
2022/04/29 04:17:08;;;;;;;25.52;15.25;;;;;;;5.79;100.00;100998.94;6253443;22;20023;-65
2022/04/29 04:19:52;;;;;;;21.45;14.40;;;;;;;5.81;100.00;100976.22;6254081;22;20084;-65
2022/04/29 04:22:38;;;;;;;19.30;13.60;;;;;;;6.10;100.00;101004.84;6287262;22;20046;-72
2022/04/29 04:25:22;;;;;;;16.75;11.10;;;;;;;6.17;100.00;101008.47;6242516;22;20376;-66
2022/04/29 04:28:06;;;;;;;18.48;12.88;;;;;;;6.17;100.00;101001.44;6263208;22;20026;-64
2022/04/29 04:31:03;;;;;;;17.42;12.45;;;;;;;6.19;100.00;100999.72;6231280;22;20029;-64
2022/04/29 04:34:53;;;;;;;15.73;10.35;;;;;;;6.25;100.00;100998.94;6231941;22;20065;-65
2022/04/29 04:37:26;;;;;;;14.48;9.98;;;;;;;6.37;100.00;100981.56;6252239;22;20018;-69
2022/04/29 04:40:17;;;;;;;15.15;9.27;;;;;;;6.41;100.00;101014.16;6211824;22;20023;-64
2022/04/29 04:43:07;;;;;;;14.43;10.23;;;;;;;6.45;100.00;101015.97;6231175;22;20088;-67
2022/04/29 04:45:52;;;;;;;15.80;9.90;;;;;;;6.32;100.00;101001.69;6285807;22;20328;-66
2022/04/29 04:48:55;;;;;;;14.13;8.50;;;;;;;6.21;100.00;101011.16;6286084;22;20039;-65
2022/04/29 04:52:15;;;;;;;12.38;8.30;;;;;;;6.50;100.00;101016.91;6182187;23;20052;-68
2022/04/29 04:55:06;;;;;;;10.70;7.57;;;;;;;6.76;100.00;101013.81;6140283;23;20057;-65
2022/04/29 04:57:55;;;;;;;14.45;7.75;;;;;;;6.88;100.00;101016.63;6181937;23;20486;-68
2022/04/29 05:00:39;;;;;;;11.77;7.95;;;;;;;6.82;100.00;101008.66;6171303;23;20067;-65
2022/04/29 05:03:44;;;;;;;15.23;8.05;;;;;;;6.94;100.00;101013.22;6180823;23;20060;-64
2022/04/29 05:06:41;;;;;;;8.60;5.82;;;;;;;7.07;100.00;101023.06;6175682;23;20020;-65
2022/04/29 05:09:26;;;;;;;11.20;6.40;;;;;;;6.99;100.00;101019.41;6160862;23;20482;-66
2022/04/29 05:12:10;;;;;;;11.37;6.33;;;;;;;6.96;100.00;101024.69;6191508;23;20027;-65
2022/04/29 05:15:33;;;;;;;10.88;7.32;;;;;;;6.90;100.00;101019.31;6016043;23;20359;-66
2022/04/29 05:18:18;;;;;;;10.18;5.55;;;;;;;7.03;100.00;101023.88;6015670;23;20026;-66
2022/04/29 05:21:11;;;;;;;11.10;5.13;;;;;;;7.21;100.00;101032.06;5998487;23;20379;-66
2022/04/29 05:23:57;;;;;;;8.77;5.30;;;;;;;7.49;100.00;101016.63;6016525;23;20040;-66
2022/04/29 05:26:54;;;;;;;12.13;5.28;;;;;;;7.57;100.00;101019.31;6122494;23;20021;-72
2022/04/29 05:29:57;;;;;;;7.55;4.63;;;;;;;7.48;100.00;101016.59;6085539;23;20449;-67
2022/04/29 05:33:01;;;;;;;6.82;4.38;;;;;;;7.53;100.00;101020.16;6103485;23;20113;-66
2022/04/29 05:36:07;;;;;;;8.60;4.00;;;;;;;7.51;100.00;101008.69;6121670;23;20024;-67
2022/04/29 05:42:22;;;;;;;6.63;4.35;;;;;;;7.87;100.00;101015.28;6030942;23;20099;-66
2022/04/29 05:45:08;;;;;;;8.52;4.28;;;;;;;7.86;100.00;101021.44;6053924;23;20022;-65
2022/04/29 05:47:54;;;;;;;10.73;5.63;;;;;;;7.87;100.00;101017.91;6161208;23;20020;-66
2022/04/29 05:50:38;;;;;;;6.72;4.07;;;;;;;7.78;100.00;101017.81;6171878;23;20032;-65
2022/04/29 05:53:23;;;;;;;7.65;4.28;;;;;;;7.68;100.00;101008.00;6161236;23;20019;-68
2022/04/29 05:56:16;;;;;;;12.35;4.40;;;;;;;7.74;100.00;101010.75;6161314;23;20416;-66
2022/04/29 05:59:01;;;;;;;10.93;4.60;;;;;;;7.66;100.00;101012.41;6191659;23;20092;-65
2022/04/29 06:02:05;;;;;;;7.68;4.13;;;;;;;7.58;100.00;100989.41;6182276;23;20111;-65
2022/04/29 06:05:06;;;;;;;9.13;4.50;;;;;;;7.92;100.00;101021.47;6160824;23;20020;-67
2022/04/29 06:07:52;;;;;;;9.73;4.05;;;;;;;7.86;100.00;101016.16;6160929;23;20056;-66
2022/04/29 06:10:53;;;;;;;8.05;3.95;;;;;;;8.00;100.00;101016.28;6170921;23;20557;-66
2022/04/29 06:13:38;;;;;;;7.63;3.42;;;;;;;7.98;100.00;101018.03;6170827;23;20076;-64
2022/04/29 06:16:55;;;;;;;10.95;3.80;;;;;;;8.05;100.00;101027.78;6265116;22;20018;-66
2022/04/29 06:19:57;;;;;;;7.05;3.60;;;;;;;8.12;100.00;101012.00;6252336;22;20023;-65
2022/04/29 06:23:01;;;;;;;4.25;3.10;;;;;;;8.09;100.00;101014.63;6276723;22;20019;-66
2022/04/29 06:25:51;;;;;;;5.18;3.20;;;;;;;8.36;100.00;101021.97;6254119;22;20496;-66
2022/04/29 06:28:37;;;;;;;5.50;3.35;;;;;;;8.32;100.00;101010.47;6277500;22;20026;-65
2022/04/29 06:31:23;;;;;;;7.97;3.00;;;;;;;8.43;100.00;101014.09;6254947;22;20034;-65
2022/04/29 06:34:26;;;;;;;5.47;2.30;;;;;;;8.25;100.00;101015.69;6254036;22;20097;-66
2022/04/29 06:37:11;;;;;;;4.90;2.45;;;;;;;8.30;100.00;101009.56;6233344;22;20030;-66
2022/04/29 06:39:58;;;;;;;5.28;2.60;;;;;;;8.71;100.00;101012.56;6232768;22;20091;-65
2022/04/29 06:42:53;;;;;;;5.20;2.92;;;;;;;8.86;99.76;100995.03;6233057;22;20026;-66
2022/04/29 06:45:56;;;;;;;6.07;2.40;;;;;;;8.84;92.18;100969.44;6287457;22;20061;-66
2022/04/29 06:49:00;;;;;;;5.05;2.50;;;;;;;9.09;88.50;101001.34;6287348;22;20337;-64
2022/04/29 06:51:44;;;;;;;4.72;2.60;;;;;;;9.35;82.89;100998.81;6233048;22;20073;-66
2022/04/29 06:54:40;;;;;;;9.13;2.33;;;;;;;9.53;81.18;101006.81;6254030;22;20081;-65
2022/04/29 06:57:30;;;;;;;7.03;2.42;;;;;;;9.62;74.72;100995.41;6212485;22;20019;-64
2022/04/29 07:00:15;;;;;;;4.38;2.03;;;;;;;9.84;70.72;100998.09;6263905;22;20042;-66
2022/04/29 07:03:03;;;;;;;4.30;1.92;;;;;;;10.13;63.29;101003.50;6243043;22;20019;-65
2022/04/29 07:05:51;;;;;;;5.43;2.00;;;;;;;10.44;60.11;101002.66;6232702;22;20095;-67
2022/04/29 07:08:35;;;;;;;4.45;2.10;;;;;;;10.78;55.77;100991.13;6264644;22;20026;-66
2022/04/29 07:11:39;;;;;;;4.10;2.03;;;;;;;10.69;54.08;100996.44;6276916;22;20441;-65
2022/04/29 07:14:27;;;;;;;3.65;1.90;;;;;;;11.01;54.18;100990.22;6263749;22;20061;-66
2022/04/29 07:17:23;;;;;;;4.28;2.15;;;;;;;11.78;50.53;101001.44;6212552;22;20057;-65
2022/04/29 07:20:13;;;;;;;3.72;1.85;;;;;;;11.99;45.34;100993.34;6253123;22;20057;-64
2022/04/29 07:22:57;;;;;;;2.95;1.55;;;;;;;11.95;43.78;100996.03;6253279;22;20460;-63
2022/04/29 07:25:42;;;;;;;5.13;1.77;;;;;;;11.55;43.01;100995.31;6242693;22;20069;-64
2022/04/29 07:28:26;;;;;;;2.88;2.10;;;;;;;12.21;46.42;100997.63;6232006;22;20074;-64
2022/04/29 07:31:11;;;;;;;3.15;1.70;;;;;;;12.57;39.07;100993.78;6287669;22;20081;-65
2022/04/29 07:34:14;;;;;;;4.50;1.65;;;;;;;13.64;37.72;100950.88;6286898;22;20073;-64
2022/04/29 07:43:24;;;;;;;5.28;1.52;;;;;;;15.46;30.74;100995.91;6287054;22;20061;-66
2022/04/29 07:46:10;;;;;;;3.05;1.60;;;;;;;13.95;33.08;100968.22;6287386;22;20018;-65
2022/04/29 07:49:21;;;;;;;3.85;1.60;;;;;;;13.12;34.90;100984.41;6253447;22;20026;-67
2022/04/29 07:52:06;;;;;;;2.50;1.63;;;;;;;12.46;35.20;100982.38;6286689;22;20069;-67
2022/04/29 07:54:53;;;;;;;4.90;1.63;;;;;;;13.36;33.82;100994.78;6242666;22;20046;-67
2022/04/29 07:57:38;;;;;;;2.65;1.38;;;;;;;15.47;29.32;100968.25;6232024;22;20058;-65
2022/04/29 08:00:23;;;;;;;3.88;1.42;;;;;;;17.46;26.83;100982.03;6253136;22;20018;-66
2022/04/29 08:03:09;;;;;;;3.83;1.40;;;;;;;18.63;23.10;100984.66;6253461;22;20461;-65
2022/04/29 08:06:09;;;;;;;5.18;1.75;;;;;;;18.36;21.34;100983.75;6268151;22;20080;-69
2022/04/29 08:08:54;;;;;;;4.47;1.50;;;;;;;17.51;24.15;100984.56;6287334;22;20030;-63
2022/04/29 08:11:39;;;;;;;2.47;1.35;;;;;;;17.40;22.40;100958.06;6275988;22;20335;-61
2022/04/29 08:14:48;;;;;;;2.42;1.40;;;;;;;18.95;21.23;100987.97;6128399;23;20448;-62
2022/04/29 08:18:03;;;;;;;4.30;1.40;;;;;;;20.72;19.87;100982.94;6082530;23;20095;-63
2022/04/29 08:20:48;;;;;;;5.22;1.10;;;;;;;22.93;18.98;100967.97;6123688;23;20071;-65
2022/04/29 08:23:33;;;;;;;2.15;1.13;;;;;;;20.78;17.85;100967.41;6063028;23;20064;-66
2022/04/29 08:26:17;;;;;;;6.03;1.55;;;;;;;18.42;20.59;100971.91;6113121;23;20052;-66
2022/04/29 08:29:02;;;;;;;2.70;1.23;;;;;;;17.61;20.81;100967.28;6102879;23;20036;-66
2022/04/29 08:31:48;;;;;;;4.40;1.40;;;;;;;19.91;19.32;100970.09;6134357;23;20084;-64
2022/04/29 08:34:33;;;;;;;2.15;1.20;;;;;;;19.04;19.54;100973.34;6113310;23;20412;-63
2022/04/29 08:37:18;;;;;;;2.00;1.30;;;;;;;19.14;19.55;100964.03;6102743;23;20049;-66
2022/04/29 08:40:06;;;;;;;1.88;1.10;;;;;;;17.82;21.13;100959.47;6112379;23;20017;-64
2022/04/29 08:42:53;;;;;;;4.15;1.20;;;;;;;16.39;21.80;100958.97;6132546;23;20021;-65
2022/04/29 08:45:38;;;;;;;1.95;1.10;;;;;;;16.78;22.03;100942.78;6106892;23;20104;-65
2022/04/29 08:48:43;;;;;;;3.47;1.13;;;;;;;19.90;19.75;100947.66;6118085;23;20282;-69
2022/04/29 08:51:29;;;;;;;2.28;1.20;;;;;;;20.22;18.52;100927.56;6179896;22;20090;-67
2022/04/29 08:58:36;;;;;;;2.85;1.30;;;;;;;19.59;19.13;100946.22;6247997;22;20027;-67
2022/04/29 09:00:22;;;;;;;3.15;1.40;;;;;;;18.09;20.88;100936.25;6280242;22;20374;-67
2022/04/29 09:03:12;;;;;;;3.05;1.38;;;;;;;19.92;19.33;100932.34;6280766;22;20090;-66
2022/04/29 09:05:56;;;;;;;2.85;1.30;;;;;;;21.25;17.52;100936.53;6280749;22;20456;-65
2022/04/29 09:08:43;;;;;;;4.82;1.30;;;;;;;22.98;16.48;100922.63;6279155;22;20080;-70
2022/04/29 09:11:28;;;;;;;2.25;1.10;;;;;;;22.59;15.56;100922.00;6247526;22;20080;-66
2022/04/29 09:14:21;;;;;;;2.20;0.93;;;;;;;22.66;15.43;100942.34;6255788;22;20057;-65
2022/04/29 09:17:05;;;;;;;4.05;1.10;;;;;;;23.42;15.84;100923.84;6257408;22;20022;-66
2022/04/29 09:19:50;;;;;;;1.88;1.20;;;;;;;23.91;15.01;100905.78;6280258;22;20015;-67
2022/04/29 09:22:36;;;;;;;2.90;1.30;;;;;;;23.97;15.14;100925.31;6279240;22;20018;-76
2022/04/29 09:25:36;;;;;;;2.50;1.17;;;;;;;24.48;15.45;100929.59;6225737;22;20346;-66
2022/04/29 09:28:39;;;;;;;;;;;;;;;24.33;14.46;100928.63;6281094;22;20038;-69
2022/04/29 09:31:55;;;;;;;2.50;1.00;;;;;;;24.23;14.96;100922.00;6229736;22;19910;-67
2022/04/29 09:35:06;;;;;;;1.92;1.20;;;;;;;22.43;15.79;100903.88;6247619;22;20095;-67
2022/04/29 09:41:05;;;;;;;1.88;1.00;;;;;;;18.15;19.23;100906.50;6105550;23;20064;-66
2022/04/29 09:43:50;;;;;;;2.83;1.00;;;;;;;19.47;18.39;100917.97;6146897;23;20616;-65
2022/04/29 09:46:38;;;;;;;1.65;1.20;;;;;;;21.21;16.76;100880.94;6126354;23;20024;-67
2022/04/29 09:49:27;;;;;;;3.55;1.38;;;;;;;24.18;15.99;100899.72;6133455;23;20024;-70
2022/04/29 09:52:18;;;;;;;4.55;1.42;;;;;;;26.71;14.80;100889.88;6105286;23;20024;-66
2022/04/29 09:55:14;;;;;;;3.83;1.20;;;;;;;27.67;12.97;100912.97;6156866;23;20016;-66
2022/04/29 09:58:01;;;;;;;4.63;1.67;;;;;;;27.07;14.14;100895.50;6105917;23;20076;-68
2022/04/29 10:00:46;;;;;;;2.47;1.17;;;;;;;26.09;13.71;100905.91;6160094;23;20388;-67
2022/04/29 10:03:35;;;;;;;1.63;1.15;;;;;;;26.09;14.01;100887.75;6128646;23;20148;-65
2022/04/29 10:06:23;;;;;;;3.95;1.08;;;;;;;24.98;14.45;100879.50;6160415;23;20191;-66
2022/04/29 10:09:10;;;;;;;4.05;1.13;;;;;;;21.88;15.78;100828.25;6159952;23;20098;-66
2022/04/29 10:11:58;;;;;;;1.52;1.10;;;;;;;20.64;16.92;100891.59;6157887;23;20044;-68
2022/04/29 10:14:44;;;;;;;2.00;1.10;;;;;;;21.93;15.93;100887.47;6159665;23;20052;-67
2022/04/29 10:21:15;;;;;;;2.45;1.08;;;;;;;25.28;14.55;100888.47;6273943;22;20134;-67
2022/04/29 10:24:00;;;;;;;2.53;1.10;;;;;;;24.63;14.40;100869.91;6284070;22;20275;-69
2022/04/29 10:26:46;;;;;;;6.53;1.50;;;;;;;26.08;14.18;100894.19;6227788;22;20546;-74
2022/04/29 10:29:31;;;;;;;2.72;1.20;;;;;;;24.06;14.74;100876.00;6208057;22;20023;-63
2022/04/29 10:32:18;;;;;;;2.13;1.10;;;;;;;25.40;14.32;100884.97;6258046;22;20137;-68
2022/04/29 10:35:03;;;;;;;2.35;1.23;;;;;;;27.88;13.00;100888.78;6262364;22;20077;-65
2022/04/29 10:37:47;;;;;;;;;;;;;;;27.44;14.17;100885.63;6277749;22;20075;-70
2022/04/29 10:40:34;;;;;;;2.83;1.08;;;;;;;24.74;14.58;100881.00;6287856;22;20234;-66
2022/04/29 10:43:21;;;;;;;1.92;1.00;;;;;;;22.96;15.07;100867.72;6264240;22;20101;-68
2022/04/29 10:46:06;;;;;;;1.48;1.05;;;;;;;21.08;16.58;100860.88;6243046;22;20038;-67
2022/04/29 10:49:20;;;;;;;1.60;1.10;;;;;;;22.05;16.34;100865.25;6266391;22;20058;-68
2022/04/29 10:52:28;;;;;;;1.98;1.10;;;;;;;22.46;15.57;100864.03;6253900;22;20026;-67
2022/04/29 10:55:36;;;;;;;1.27;1.02;;;;;;;21.60;15.68;100827.81;6274367;22;20401;-68
2022/04/29 10:58:45;;;;;;;1.38;1.02;;;;;;;21.16;16.26;100855.16;6264126;22;20034;-66
2022/04/29 11:01:34;;;;;;;3.13;1.00;;;;;;;20.08;17.46;100841.91;6254229;22;20361;-70
2022/04/29 11:04:18;;;;;;;3.10;1.20;;;;;;;19.16;18.38;100836.66;6263272;22;20093;-66
2022/04/29 11:07:03;;;;;;;3.78;1.10;;;;;;;18.31;19.41;100834.41;6262764;22;20042;-65
2022/04/29 11:09:49;;;;;;;4.22;1.60;;;;;;;18.16;20.44;100821.50;6275568;22;20022;-65
2022/04/29 11:12:39;;;;;;;3.97;1.40;;;;;;;18.44;20.17;100819.63;6263708;22;20410;-68
2022/04/29 11:16:10;;;;;;;2.70;1.00;;;;;;;17.25;19.98;100812.81;6161498;23;20044;-67
2022/04/29 11:19:28;;;;;;;3.28;1.15;;;;;;;16.46;20.56;100811.53;6153439;23;20048;-67
2022/04/29 11:25:23;;;;;;;2.83;1.00;;;;;;;17.43;21.54;100820.31;6170835;23;20028;-66
2022/04/29 11:28:35;;;;;;;2.40;0.95;;;;;;;17.48;20.14;100831.78;6193173;23;20107;-64
2022/04/29 11:31:41;;;;;;;2.42;1.10;;;;;;;17.75;19.94;100822.84;6165217;23;20028;-66
2022/04/29 11:34:26;;;;;;;7.18;1.23;;;;;;;17.33;20.62;100808.09;6172318;23;20055;-67
2022/04/29 11:37:11;;;;;;;6.07;1.50;;;;;;;16.93;20.98;100818.25;6193093;23;20099;-73
2022/04/29 11:40:01;;;;;;;2.60;1.20;;;;;;;16.26;21.84;100816.50;6150301;23;20079;-68
2022/04/29 11:42:50;;;;;;;3.45;0.90;;;;;;;15.04;22.90;100807.91;6140472;23;20091;-67
2022/04/29 11:45:36;;;;;;;2.55;1.20;;;;;;;14.32;23.31;100801.34;6192256;23;20024;-68
2022/04/29 11:48:21;;;;;;;1.98;1.20;;;;;;;14.15;24.25;100800.75;6181732;23;20490;-66
2022/04/29 11:51:14;;;;;;;2.78;1.08;;;;;;;14.58;24.61;100792.84;6194947;22;20043;-67
2022/04/29 11:54:04;;;;;;;3.45;0.98;;;;;;;14.66;24.75;100785.56;6264744;22;20137;-66
2022/04/29 11:56:49;;;;;;;3.55;1.40;;;;;;;14.67;25.50;100788.19;6285376;22;20492;-67
2022/04/29 11:59:34;;;;;;;2.65;1.00;;;;;;;14.81;24.38;100762.09;6240526;22;20416;-67
2022/04/29 12:02:21;;;;;;;1.85;1.08;;;;;;;15.37;23.85;100785.78;6230333;22;20026;-65
2022/04/29 12:05:07;;;;;;;1.90;1.10;;;;;;;15.65;24.07;100772.63;6230389;22;20480;-68
2022/04/29 12:07:52;;;;;;;1.88;1.30;;;;;;;15.73;23.60;100781.34;6253056;22;20047;-65
2022/04/29 12:10:47;;;;;;;7.18;1.75;;;;;;;15.40;24.23;100768.81;6283073;22;20026;-67
2022/04/29 12:13:34;;;;;;;6.45;1.63;;;;;;;15.09;24.66;100768.59;6259527;22;20030;-67
2022/04/29 12:16:19;;;;;;;3.88;1.35;;;;;;;15.28;25.08;100769.94;6260590;22;20027;-67
2022/04/29 12:19:15;;;;;;;8.60;1.40;;;;;;;15.24;24.27;100765.59;6249277;22;20153;-72
2022/04/29 12:22:00;;;;;;;2.70;1.60;;;;;;;15.13;24.93;100759.59;6282588;22;20030;-66
2022/04/29 12:24:45;;;;;;;3.53;1.45;;;;;;;14.64;25.81;100752.69;6282666;22;20035;-65
2022/04/29 12:27:30;;;;;;;;;;;;;;;14.60;26.20;100751.84;6262789;22;20034;-66
2022/04/29 12:36:57;;;;;;;3.35;1.67;;;;;;;14.93;25.97;100726.22;6281549;22;20034;-66
2022/04/29 12:39:47;;;;;;;3.00;1.30;;;;;;;14.94;25.72;100720.84;6262080;22;20514;-66
2022/04/29 12:42:32;;;;;;;2.80;1.35;;;;;;;15.00;26.18;100734.09;6231726;22;20073;-65
2022/04/29 12:45:24;;;;;;;1.27;0.90;;;;;;;14.96;26.05;100743.09;6241821;22;20492;-65
2022/04/29 12:48:16;;;;;;;2.35;1.30;;;;;;;15.30;25.69;100732.47;6285794;22;20130;-65
2022/04/29 12:51:25;;;;;;;2.55;1.35;;;;;;;15.20;25.31;100729.16;6263863;22;20042;-65
2022/04/29 12:54:25;;;;;;;3.45;1.98;;;;;;;15.09;25.44;100720.50;6241264;22;20521;-65
2022/04/29 12:57:11;;;;;;;3.65;1.80;;;;;;;14.58;25.86;100704.75;6252537;22;20052;-66
2022/04/29 13:00:00;;;;;;;2.60;1.45;;;;;;;14.42;26.30;100709.53;6284934;22;20027;-66
2022/04/29 13:02:44;;;;;;;4.68;1.65;;;;;;;14.70;26.55;100707.16;6262614;22;20058;-66
2022/04/29 13:05:31;;;;;;;5.60;1.40;;;;;;;15.32;26.64;100707.50;6249633;22;20096;-66
2022/04/29 13:08:15;;;;;;;3.97;1.67;;;;;;;15.81;25.44;100708.03;6252069;22;20468;-65
2022/04/29 13:11:03;;;;;;;;;;;;;;;15.53;25.18;100712.34;6285950;22;20480;-68
2022/04/29 13:13:52;;;;;;;2.17;1.30;;;;;;;15.74;24.67;100700.22;6221405;23;20308;-65
2022/04/29 13:16:39;;;;;;;3.63;1.23;;;;;;;15.06;24.91;100682.28;6221103;23;20027;-66
2022/04/29 13:19:24;;;;;;;4.20;1.40;;;;;;;15.51;24.86;100705.28;6221535;23;20092;-64
2022/04/29 13:22:08;;;;;;;5.28;1.40;;;;;;;15.48;25.64;100703.56;6252959;23;20104;-66
2022/04/29 13:24:53;;;;;;;3.00;1.58;;;;;;;15.57;25.47;100684.59;6254949;23;20079;-67
2022/04/29 13:27:37;;;;;;;4.60;1.30;;;;;;;15.69;25.30;100684.28;6252918;23;20027;-66
2022/04/29 13:30:22;;;;;;;5.72;1.80;;;;;;;15.59;24.99;100684.56;6221374;23;20046;-66
2022/04/29 13:33:09;;;;;;;;;;;;;;;15.16;26.13;100690.06;6255229;23;20070;-66
2022/04/29 13:35:55;;;;;;;5.82;1.30;;;;;;;14.78;26.82;100670.47;6255075;23;19977;-67
2022/04/29 13:38:40;;;;;;;3.28;1.55;;;;;;;14.68;27.46;100675.16;6221954;23;20154;-66
2022/04/29 13:41:26;;;;;;;5.00;1.80;;;;;;;14.74;27.16;100682.16;6221365;23;20026;-66